createdAt,value
2017-09-20T12:49:59.228Z,1020.02
2017-09-20T12:51:01.103Z,1019.96
2017-09-20T12:52:02.985Z,1020.01
2017-09-20T12:53:04.872Z,1020.07
2017-09-20T12:54:06.741Z,1020.03
2017-09-20T12:55:08.591Z,1019.98
2017-09-20T12:56:10.461Z,1020.04
2017-09-20T12:57:12.364Z,1019.98
2017-09-20T12:58:14.311Z,1019.96
2017-09-20T12:59:28.481Z,1019.94
2017-09-20T13:00:30.360Z,1019.94
2017-09-20T13:01:32.257Z,1019.90
2017-09-20T13:02:34.175Z,1019.94
2017-09-20T13:03:35.993Z,1019.91
2017-09-20T13:04:37.877Z,1019.88
2017-09-20T13:05:39.784Z,1019.92
2017-09-20T13:06:41.668Z,1019.89
2017-09-20T13:07:43.565Z,1019.93
2017-09-20T13:08:57.719Z,1019.86
2017-09-20T13:09:59.612Z,1019.86
2017-09-20T13:11:01.501Z,1019.80
2017-09-20T13:12:03.391Z,1019.84
2017-09-20T13:13:05.304Z,1019.87
2017-09-20T13:14:07.116Z,1019.81
2017-09-20T13:15:09.003Z,1019.88
2017-09-20T13:16:10.987Z,1019.82
2017-09-20T13:17:12.861Z,1019.80
2017-09-20T13:18:27.062Z,1019.86
2017-09-20T13:19:28.967Z,1019.92
2017-09-20T13:20:30.856Z,1019.98
2017-09-20T13:21:32.743Z,1019.90
2017-09-20T13:22:34.580Z,1019.96
2017-09-20T13:23:36.436Z,1019.92
2017-09-20T13:24:38.344Z,1019.89
2017-09-20T13:25:40.247Z,1019.90
2017-09-20T13:26:42.155Z,1019.91
2017-09-20T13:27:56.317Z,1019.87
2017-09-20T13:28:58.205Z,1019.81
2017-09-20T13:30:00.098Z,1019.86
2017-09-20T13:31:01.983Z,1019.88
2017-09-20T13:32:03.820Z,1019.87
2017-09-20T13:33:05.709Z,1019.95
2017-09-20T13:34:07.613Z,1019.95
2017-09-20T13:35:09.497Z,1019.98
2017-09-20T13:36:11.389Z,1020.06
2017-09-20T13:37:25.556Z,1020.06
2017-09-20T13:38:27.477Z,1020.10
2017-09-20T13:39:29.370Z,1020.12
2017-09-20T13:40:31.609Z,1020.16
2017-09-20T13:41:33.402Z,1020.14
2017-09-20T13:42:35.232Z,1020.17
2017-09-20T13:43:37.124Z,1020.21
2017-09-20T13:44:39.014Z,1020.25
2017-09-20T13:45:40.910Z,1020.28
2017-09-20T13:46:55.495Z,1020.27
2017-09-20T13:47:57.350Z,1020.26
2017-09-20T13:48:59.242Z,1020.25
2017-09-20T13:50:01.230Z,1020.26
2017-09-20T13:51:03.093Z,1020.21
2017-09-20T13:52:04.957Z,1020.18
2017-09-20T13:53:06.847Z,1020.16
2017-09-20T13:54:08.741Z,1020.16
2017-09-20T13:55:10.633Z,1020.11
2017-09-20T13:56:24.797Z,1020.02
2017-09-20T13:57:26.740Z,1020.03
2017-09-20T13:58:29.042Z,1020.05
2017-09-20T13:59:30.985Z,1020.08
2017-09-20T14:00:32.825Z,1020.02
2017-09-20T14:01:34.661Z,1020.00
2017-09-20T14:02:36.563Z,1019.98
2017-09-20T14:03:38.444Z,1019.99
2017-09-20T14:04:40.338Z,1019.96
2017-09-20T14:05:54.879Z,1019.96
2017-09-20T14:06:57.159Z,1020.01
2017-09-20T14:07:59.068Z,1019.97
2017-09-20T14:09:00.957Z,1019.97
2017-09-20T14:10:02.793Z,1019.97
2017-09-20T14:11:04.629Z,1019.95
2017-09-20T14:12:06.515Z,1019.92
2017-09-20T14:13:08.442Z,1019.92
2017-09-20T14:14:10.327Z,1019.90
2017-09-20T14:15:24.488Z,1019.88
2017-09-20T14:16:26.380Z,1019.97
2017-09-20T14:17:28.276Z,1019.91
2017-09-20T14:18:30.236Z,1019.91
2017-09-20T14:19:32.033Z,1019.92
2017-09-20T14:20:33.861Z,1019.88
2017-09-20T14:21:35.787Z,1019.87
2017-09-20T14:22:37.681Z,1019.89
2017-09-20T14:23:39.585Z,1019.90
2017-09-20T14:24:54.235Z,1019.91
2017-09-20T14:25:56.162Z,1019.93
2017-09-20T14:26:58.049Z,1019.93
2017-09-20T14:28:00.288Z,1019.92
2017-09-20T14:29:02.081Z,1019.94
2017-09-20T14:30:03.917Z,1019.92
2017-09-20T14:31:05.808Z,1019.99
2017-09-20T14:32:08.060Z,1019.95
2017-09-20T14:33:09.996Z,1019.98
2017-09-20T14:34:24.160Z,1020.02
2017-09-20T14:35:26.391Z,1020.01
2017-09-20T14:36:28.314Z,1020.03
2017-09-20T14:37:30.531Z,1019.97
2017-09-20T14:38:32.335Z,1020.04
2017-09-20T14:39:34.183Z,1020.02
2017-09-20T14:40:36.416Z,1020.04
2017-09-20T14:41:38.341Z,1019.95
2017-09-20T14:42:40.294Z,1019.96
2017-09-20T14:43:54.423Z,1019.98
2017-09-20T14:44:56.321Z,1019.94
2017-09-20T14:45:58.219Z,1019.95
2017-09-20T14:47:00.104Z,1019.91
2017-09-20T14:48:01.935Z,1019.92
2017-09-20T14:49:03.762Z,1019.93
2017-09-20T14:50:05.660Z,1019.96
2017-09-20T14:51:07.900Z,1019.97
2017-09-20T14:52:09.893Z,1019.94
2017-09-20T14:53:24.012Z,1019.99
2017-09-20T14:54:25.914Z,1019.99
2017-09-20T14:55:27.815Z,1019.94
2017-09-20T14:56:29.724Z,1019.96
2017-09-20T14:57:31.542Z,1019.96
2017-09-20T14:58:33.372Z,1019.94
2017-09-20T14:59:35.265Z,1019.95
2017-09-20T15:00:37.158Z,1019.94
2017-09-20T15:01:39.050Z,1019.97
2017-09-20T15:02:53.213Z,1019.96
2017-09-20T15:03:55.101Z,1019.94
2017-09-20T15:04:57.003Z,1019.99
2017-09-20T15:05:58.893Z,1019.99
2017-09-20T15:07:00.719Z,1019.98
2017-09-20T15:08:02.549Z,1019.99
2017-09-20T15:09:04.439Z,1019.98
2017-09-20T15:10:06.330Z,1020.01
2017-09-20T15:11:08.224Z,1020.01
2017-09-20T15:12:22.393Z,1019.98
2017-09-20T15:13:24.285Z,1019.98
2017-09-20T15:14:26.192Z,1020.04
2017-09-20T15:15:28.078Z,1020.05
2017-09-20T15:16:29.904Z,1020.02
2017-09-20T15:17:31.738Z,1020.04
2017-09-20T15:18:33.633Z,1020.00
2017-09-20T15:19:35.530Z,1020.04
2017-09-20T15:20:37.420Z,1020.06
2017-09-20T15:21:51.580Z,1020.05
2017-09-20T15:22:53.477Z,1020.06
2017-09-20T15:23:55.365Z,1020.10
2017-09-20T15:24:57.266Z,1020.07
2017-09-20T15:25:59.091Z,1020.05
2017-09-20T15:27:00.919Z,1020.10
2017-09-20T15:28:02.811Z,1020.12
2017-09-20T15:29:04.696Z,1020.12
2017-09-20T15:30:06.588Z,1020.15
2017-09-20T15:31:20.748Z,1020.12
2017-09-20T15:32:22.637Z,1020.19
2017-09-20T15:33:24.528Z,1020.15
2017-09-20T15:34:26.416Z,1020.13
2017-09-20T15:35:28.241Z,1020.14
2017-09-20T15:36:30.069Z,1020.14
2017-09-20T15:37:31.956Z,1020.14
2017-09-20T15:38:33.848Z,1020.15
2017-09-20T15:39:35.735Z,1020.12
2017-09-20T15:40:49.961Z,1020.12
2017-09-20T15:41:51.855Z,1020.14
2017-09-20T15:42:53.735Z,1020.14
2017-09-20T15:43:55.620Z,1020.20
2017-09-20T15:44:57.457Z,1020.19
2017-09-20T15:45:59.282Z,1020.21
2017-09-20T15:47:01.178Z,1020.26
2017-09-20T15:48:03.080Z,1020.20
2017-09-20T15:49:04.966Z,1020.22
2017-09-20T15:50:19.131Z,1020.24
2017-09-20T15:51:21.018Z,1020.31
2017-09-20T15:52:22.905Z,1020.32
2017-09-20T15:53:24.792Z,1020.30
2017-09-20T15:54:26.617Z,1020.33
2017-09-20T15:55:28.446Z,1020.31
2017-09-20T15:56:30.334Z,1020.37
2017-09-20T15:57:32.220Z,1020.35
2017-09-20T15:58:34.391Z,1020.33
2017-09-20T15:59:48.522Z,1020.36
2017-09-20T16:00:50.402Z,1020.34
2017-09-20T16:01:52.297Z,1020.34
2017-09-20T16:02:54.184Z,1020.32
2017-09-20T16:03:56.005Z,1020.32
2017-09-20T16:04:57.847Z,1020.30
2017-09-20T16:05:59.725Z,1020.27
2017-09-20T16:07:01.621Z,1020.27
2017-09-20T16:08:03.514Z,1020.28
2017-09-20T16:09:17.673Z,1020.26
2017-09-20T16:10:19.560Z,1020.23
2017-09-20T16:11:21.459Z,1020.22
2017-09-20T16:12:23.355Z,1020.20
2017-09-20T16:13:25.181Z,1020.23
2017-09-20T16:14:27.009Z,1020.23
2017-09-20T16:15:28.902Z,1020.22
2017-09-20T16:16:30.790Z,1020.24
2017-09-20T16:17:32.691Z,1020.23
2017-09-20T16:18:46.907Z,1020.22
2017-09-20T16:19:48.795Z,1020.23
2017-09-20T16:20:50.682Z,1020.22
2017-09-20T16:21:52.571Z,1020.19
2017-09-20T16:22:54.406Z,1020.19
2017-09-20T16:23:56.231Z,1020.24
2017-09-20T16:24:58.125Z,1020.26
2017-09-20T16:26:00.003Z,1020.25
2017-09-20T16:27:01.891Z,1020.25
2017-09-20T16:28:16.058Z,1020.25
2017-09-20T16:29:17.960Z,1020.25
2017-09-20T16:30:19.830Z,1020.24
2017-09-20T16:31:21.717Z,1020.27
2017-09-20T16:32:23.552Z,1020.27
2017-09-20T16:33:25.378Z,1020.29
2017-09-20T16:34:27.265Z,1020.29
2017-09-20T16:35:29.163Z,1020.26
2017-09-20T16:36:31.043Z,1020.27
2017-09-20T16:37:45.207Z,1020.26
2017-09-20T16:38:47.091Z,1020.28
2017-09-20T16:39:48.996Z,1020.24
2017-09-20T16:40:50.880Z,1020.24
2017-09-20T16:41:52.708Z,1020.26
2017-09-20T16:42:54.529Z,1020.26
2017-09-20T16:43:56.415Z,1020.26
2017-09-20T16:44:58.315Z,1020.34
2017-09-20T16:46:00.206Z,1020.34
2017-09-20T16:47:14.365Z,1020.33
2017-09-20T16:48:16.247Z,1020.36
2017-09-20T16:49:18.152Z,1020.32
2017-09-20T16:50:20.045Z,1020.37
2017-09-20T16:51:21.851Z,1020.35
2017-09-20T16:52:23.674Z,1020.38
2017-09-20T16:53:25.574Z,1020.37
2017-09-20T16:54:27.459Z,1020.36
2017-09-20T16:55:29.348Z,1020.38
2017-09-20T16:56:43.507Z,1020.34
2017-09-20T16:57:45.394Z,1020.33
2017-09-20T16:58:47.278Z,1020.35
2017-09-20T16:59:49.158Z,1020.38
2017-09-20T17:00:50.980Z,1020.38
2017-09-20T17:01:52.849Z,1020.35
2017-09-20T17:02:54.736Z,1020.35
2017-09-20T17:03:56.623Z,1020.31
2017-09-20T17:04:58.524Z,1020.36
2017-09-20T17:06:12.679Z,1020.33
2017-09-20T17:07:14.564Z,1020.36
2017-09-20T17:08:16.453Z,1020.37
2017-09-20T17:09:18.337Z,1020.32
2017-09-20T17:10:20.162Z,1020.38
2017-09-20T17:11:21.980Z,1020.41
2017-09-20T17:12:24.179Z,1020.39
2017-09-20T17:13:26.028Z,1020.35
2017-09-20T17:14:27.911Z,1020.37
2017-09-20T17:15:42.078Z,1020.37
2017-09-20T17:16:43.975Z,1020.42
2017-09-20T17:17:45.876Z,1020.42
2017-09-20T17:18:47.758Z,1020.42
2017-09-20T17:19:49.580Z,1020.45
2017-09-20T17:20:51.400Z,1020.47
2017-09-20T17:21:53.285Z,1020.47
2017-09-20T17:22:55.167Z,1020.50
2017-09-20T17:23:57.051Z,1020.47
2017-09-20T17:25:11.219Z,1020.53
2017-09-20T17:26:13.113Z,1020.55
2017-09-20T17:27:15.010Z,1020.56
2017-09-20T17:28:16.895Z,1020.57
2017-09-20T17:29:18.716Z,1020.62
2017-09-20T17:30:20.537Z,1020.60
2017-09-20T17:31:22.426Z,1020.61
2017-09-20T17:32:24.315Z,1020.58
2017-09-20T17:33:26.230Z,1020.60
2017-09-20T17:34:40.383Z,1020.62
2017-09-20T17:35:42.265Z,1020.61
2017-09-20T17:36:44.158Z,1020.61
2017-09-20T17:37:46.040Z,1020.61
2017-09-20T17:38:47.860Z,1020.61
2017-09-20T17:39:49.678Z,1020.66
2017-09-20T17:40:51.561Z,1020.65
2017-09-20T17:41:53.443Z,1020.65
2017-09-20T17:42:55.328Z,1020.65
2017-09-20T17:44:09.484Z,1020.63
2017-09-20T17:45:11.369Z,1020.62
2017-09-20T17:46:13.255Z,1020.65
2017-09-20T17:47:15.132Z,1020.70
2017-09-20T17:48:16.962Z,1020.66
2017-09-20T17:49:18.783Z,1020.62
2017-09-20T17:50:20.664Z,1020.63
2017-09-20T17:51:22.573Z,1020.66
2017-09-20T17:52:24.459Z,1020.72
2017-09-20T17:53:38.617Z,1020.68
2017-09-20T17:54:40.499Z,1020.71
2017-09-20T17:55:42.936Z,1020.70
2017-09-20T17:56:44.880Z,1020.70
2017-09-20T17:57:46.699Z,1020.73
2017-09-20T17:58:48.524Z,1020.76
2017-09-20T17:59:50.405Z,1020.75
2017-09-20T18:00:52.299Z,1020.78
2017-09-20T18:01:54.186Z,1020.78
2017-09-20T18:03:08.339Z,1020.78
2017-09-20T18:04:10.254Z,1020.81
